Time;durP1;ratioP1;P1;durP2;ratioP2;P2;SDS_P1;SDS_P2;PMS_P1;PMS_P2;Temp;Humidity;BMP_temperature;BMP_pressure;BME280_temperature;BME280_humidity;BME280_pressure;Samples;Min_cycle;Max_cycle;Signal;HPM_P1;HPM_P2
2022/04/29 00:00:30;;;;;;;12.60;9.63;;;4.10;99.90;;;;;;5033794;28;20479;-74
2022/04/29 00:02:59;;;;;;;13.07;8.55;;;4.10;99.90;;;;;;5021573;28;20029;-74
2022/04/29 00:05:26;;;;;;;16.08;9.90;;;4.10;99.90;;;;;;5017351;28;20040;-74
2022/04/29 00:07:52;;;;;;;13.75;9.00;;;4.10;99.90;;;;;;5034027;28;20029;-74
2022/04/29 00:10:19;;;;;;;15.00;9.10;;;4.10;99.90;;;;;;5049941;28;20102;-74
2022/04/29 00:12:48;;;;;;;16.20;9.23;;;4.00;99.90;;;;;;5033565;28;20079;-74
2022/04/29 00:15:15;;;;;;;18.48;10.13;;;4.00;99.90;;;;;;5021964;28;20040;-74
2022/04/29 00:17:42;;;;;;;17.27;10.73;;;4.00;99.90;;;;;;5006226;28;20048;-74
2022/04/29 00:20:09;;;;;;;15.68;10.00;;;4.00;99.90;;;;;;5018420;28;20407;-74
2022/04/29 00:22:35;;;;;;;14.35;9.45;;;4.00;99.90;;;;;;5025205;28;20037;-75
2022/04/29 00:25:01;;;;;;;16.42;9.65;;;4.00;99.90;;;;;;5028985;28;20094;-74
2022/04/29 00:27:27;;;;;;;15.38;9.10;;;3.90;99.90;;;;;;5025235;28;20171;-74
2022/04/29 00:29:52;;;;;;;13.40;10.40;;;3.90;99.90;;;;;;5011258;28;20520;-74
2022/04/29 00:32:18;;;;;;;15.18;9.85;;;3.90;99.90;;;;;;5005292;28;20041;-74
2022/04/29 00:34:44;;;;;;;13.60;9.75;;;3.80;99.90;;;;;;5018442;28;20107;-74
2022/04/29 00:37:10;;;;;;;13.90;9.55;;;3.80;99.90;;;;;;5047310;28;20491;-74
2022/04/29 00:39:38;;;;;;;11.88;9.15;;;3.80;99.90;;;;;;5038477;28;20044;-74
2022/04/29 00:42:12;;;;;;;14.75;10.02;;;3.70;99.90;;;;;;5024631;28;20077;-74
2022/04/29 00:44:40;;;;;;;15.32;10.30;;;3.80;99.90;;;;;;5044765;28;20037;-74
2022/04/29 00:47:10;;;;;;;16.95;10.02;;;3.70;99.90;;;;;;5021608;28;20396;-74
2022/04/29 00:49:36;;;;;;;16.75;10.20;;;3.60;99.90;;;;;;5029707;28;20120;-74
2022/04/29 00:52:05;;;;;;;15.73;10.73;;;3.60;99.90;;;;;;5013418;28;20602;-74
2022/04/29 00:54:34;;;;;;;16.00;9.85;;;3.60;99.90;;;;;;5030652;28;20503;-74
2022/04/29 00:57:01;;;;;;;14.98;9.80;;;3.60;99.90;;;;;;5018538;28;20042;-74
2022/04/29 00:59:54;;;;;;;14.80;9.45;;;3.50;99.90;;;;;;5020931;28;20490;-74
2022/04/29 01:02:21;;;;;;;20.35;11.27;;;3.50;99.90;;;;;;5012617;28;20038;-74
2022/04/29 01:05:01;;;;;;;16.17;9.82;;;3.50;99.90;;;;;;5012324;28;20598;-74
2022/04/29 01:07:34;;;;;;;20.65;11.63;;;3.50;99.90;;;;;;5022982;28;20041;-74
2022/04/29 01:10:02;;;;;;;20.15;10.95;;;3.40;99.90;;;;;;5025962;28;20056;-74
2022/04/29 01:12:31;;;;;;;20.45;11.20;;;3.60;99.90;;;;;;5033077;28;20167;-74
2022/04/29 01:15:21;;;;;;;18.63;11.45;;;3.60;99.90;;;;;;5013309;28;20043;-74
2022/04/29 01:17:48;;;;;;;14.52;10.10;;;3.70;99.90;;;;;;5017724;28;20045;-74
2022/04/29 01:20:20;;;;;;;14.95;10.70;;;3.70;99.90;;;;;;5020767;28;20479;-74
2022/04/29 01:22:48;;;;;;;23.77;11.83;;;3.70;99.90;;;;;;5021376;28;20049;-74
2022/04/29 01:25:17;;;;;;;16.65;10.63;;;3.70;99.90;;;;;;5020262;28;20100;-74
2022/04/29 01:27:42;;;;;;;17.80;10.50;;;3.70;99.90;;;;;;5018245;28;20582;-74
2022/04/29 01:30:13;;;;;;;15.55;9.77;;;3.60;99.90;;;;;;5007362;28;20033;-74
2022/04/29 01:32:40;;;;;;;19.70;10.85;;;3.60;99.90;;;;;;5022813;28;20076;-74
2022/04/29 01:35:12;;;;;;;18.38;11.07;;;3.60;99.90;;;;;;5013622;28;20041;-74
2022/04/29 01:37:42;;;;;;;23.52;11.93;;;3.60;99.90;;;;;;5028216;28;20123;-75
2022/04/29 01:40:09;;;;;;;20.45;11.73;;;3.60;99.90;;;;;;5021400;28;20050;-74
2022/04/29 01:42:41;;;;;;;21.65;10.65;;;3.70;99.90;;;;;;5019937;28;20372;-74
2022/04/29 01:45:08;;;;;;;17.88;10.95;;;3.70;99.90;;;;;;5025936;28;20049;-74
2022/04/29 01:47:36;;;;;;;15.70;9.98;;;3.60;99.90;;;;;;5028233;28;20087;-74
2022/04/29 01:50:03;;;;;;;13.85;9.75;;;3.50;99.90;;;;;;5035386;28;20080;-74
2022/04/29 01:52:28;;;;;;;17.10;11.10;;;3.40;99.90;;;;;;5023116;28;20041;-74
2022/04/29 01:54:56;;;;;;;17.08;10.73;;;3.30;99.90;;;;;;5019938;28;20044;-74
2022/04/29 01:57:22;;;;;;;20.88;12.20;;;3.30;99.90;;;;;;5027823;28;20043;-74
2022/04/29 01:59:48;;;;;;;23.83;12.20;;;3.20;99.90;;;;;;5025185;28;21230;-74
2022/04/29 02:02:17;;;;;;;21.42;12.43;;;3.30;99.90;;;;;;5017204;28;20125;-74
2022/04/29 02:04:42;;;;;;;18.52;11.48;;;3.40;99.90;;;;;;5024740;28;20049;-74
2022/04/29 02:07:11;;;;;;;16.90;10.20;;;3.30;99.90;;;;;;5030245;28;20090;-74
2022/04/29 02:09:36;;;;;;;16.83;11.23;;;3.30;99.90;;;;;;5011375;28;20495;-74
2022/04/29 02:12:05;;;;;;;18.95;9.82;;;3.30;99.90;;;;;;5021423;28;20082;-74
2022/04/29 02:14:37;;;;;;;16.60;11.20;;;3.20;99.90;;;;;;5033725;28;20118;-74
2022/04/29 02:17:06;;;;;;;20.00;11.88;;;3.20;99.90;;;;;;5016984;28;20563;-74
2022/04/29 02:19:33;;;;;;;15.55;10.63;;;3.10;99.90;;;;;;5013086;28;20041;-74
2022/04/29 02:22:00;;;;;;;18.05;11.13;;;3.20;99.90;;;;;;5015896;28;20037;-74
2022/04/29 02:24:26;;;;;;;21.20;11.15;;;3.10;99.90;;;;;;5033970;28;20558;-74
2022/04/29 02:26:53;;;;;;;19.25;11.85;;;3.10;99.90;;;;;;5028329;28;20080;-74
2022/04/29 02:29:19;;;;;;;20.25;11.95;;;3.10;99.90;;;;;;4995994;28;20053;-74
2022/04/29 02:31:45;;;;;;;16.40;11.27;;;3.00;99.90;;;;;;5005120;28;20034;-74
2022/04/29 02:34:11;;;;;;;22.42;10.98;;;3.10;99.90;;;;;;5032986;28;20529;-74
2022/04/29 02:36:36;;;;;;;18.98;11.73;;;3.00;99.90;;;;;;5048875;28;20045;-74
2022/04/29 02:39:03;;;;;;;19.63;11.73;;;3.00;99.90;;;;;;5028588;28;20041;-74
2022/04/29 02:41:29;;;;;;;21.20;12.07;;;3.00;99.90;;;;;;5051611;28;20130;-74
2022/04/29 02:43:54;;;;;;;18.73;12.27;;;3.00;99.90;;;;;;5025549;28;20087;-75
2022/04/29 02:46:20;;;;;;;20.83;12.30;;;3.10;99.90;;;;;;5066225;28;20585;-74
2022/04/29 02:48:48;;;;;;;23.48;13.25;;;3.10;99.90;;;;;;5042903;28;20040;-74
2022/04/29 02:51:16;;;;;;;22.30;12.52;;;3.20;99.90;;;;;;5051468;28;20040;-74
2022/04/29 02:53:43;;;;;;;20.60;12.15;;;3.20;99.90;;;;;;5034352;28;20029;-74
2022/04/29 02:56:09;;;;;;;20.35;12.43;;;3.20;99.90;;;;;;5039062;28;20106;-74
2022/04/29 02:58:34;;;;;;;22.02;12.30;;;3.30;99.90;;;;;;5014412;28;20499;-74
2022/04/29 03:01:01;;;;;;;15.25;11.70;;;3.30;99.90;;;;;;5014900;28;20041;-74
2022/04/29 03:03:31;;;;;;;20.42;12.43;;;3.30;99.90;;;;;;5030122;28;20049;-74
2022/04/29 03:05:56;;;;;;;18.88;11.75;;;3.30;99.90;;;;;;5028235;28;20542;-74
2022/04/29 03:08:22;;;;;;;17.83;11.15;;;3.30;99.90;;;;;;5026158;28;20073;-74
2022/04/29 03:10:48;;;;;;;18.55;11.20;;;3.20;99.90;;;;;;5051576;28;20064;-74
2022/04/29 03:13:14;;;;;;;17.55;10.82;;;3.20;99.90;;;;;;5021123;28;20044;-74
2022/04/29 03:15:40;;;;;;;25.58;12.98;;;3.30;99.90;;;;;;5027040;28;20049;-74
2022/04/29 03:18:18;;;;;;;21.77;12.55;;;3.30;99.90;;;;;;5027727;28;20411;-74
2022/04/29 03:20:48;;;;;;;21.05;11.80;;;3.30;99.90;;;;;;5034477;28;20511;-74
2022/04/29 03:23:14;;;;;;;16.25;11.68;;;3.10;99.90;;;;;;5003068;28;20563;-74
2022/04/29 03:25:41;;;;;;;20.10;12.15;;;3.10;99.90;;;;;;5023106;28;20033;-74
2022/04/29 03:28:07;;;;;;;23.40;12.43;;;3.20;99.90;;;;;;5026736;28;20029;-74
2022/04/29 03:30:36;;;;;;;17.98;11.55;;;3.10;99.90;;;;;;5042462;28;20044;-74
2022/04/29 03:33:05;;;;;;;19.73;11.57;;;3.10;99.90;;;;;;5023005;28;20036;-74
2022/04/29 03:35:31;;;;;;;16.60;10.88;;;3.10;99.90;;;;;;5024327;28;20098;-74
2022/04/29 03:37:57;;;;;;;18.77;10.38;;;3.10;99.90;;;;;;5051150;28;20037;-74
2022/04/29 03:40:25;;;;;;;16.77;11.27;;;3.00;99.90;;;;;;5042114;28;20408;-74
2022/04/29 03:42:52;;;;;;;20.50;11.00;;;3.00;99.90;;;;;;5013781;28;20479;-74
2022/04/29 03:45:22;;;;;;;19.20;10.80;;;3.00;99.90;;;;;;5036891;28;20073;-74
2022/04/29 03:47:48;;;;;;;17.55;11.30;;;3.00;99.90;;;;;;5015711;28;20030;-74
2022/04/29 03:50:13;;;;;;;21.30;11.07;;;3.00;99.90;;;;;;5002114;28;20503;-74
2022/04/29 03:52:55;;;;;;;19.25;12.35;;;3.00;99.90;;;;;;5012090;28;20038;-74
2022/04/29 03:55:23;;;;;;;18.05;11.82;;;3.00;99.90;;;;;;5055319;28;20120;-74
2022/04/29 03:57:49;;;;;;;18.98;11.45;;;3.00;99.90;;;;;;5024915;28;20044;-74
2022/04/29 04:00:16;;;;;;;20.00;11.75;;;3.20;99.90;;;;;;5033949;28;20043;-74
2022/04/29 04:02:42;;;;;;;19.30;12.68;;;3.10;99.90;;;;;;5012230;28;20052;-74
2022/04/29 04:05:09;;;;;;;23.52;12.38;;;3.10;99.90;;;;;;5018782;28;20037;-74
2022/04/29 04:07:35;;;;;;;20.50;11.82;;;3.10;99.90;;;;;;5030104;28;20041;-75
2022/04/29 04:10:02;;;;;;;18.92;11.20;;;3.10;99.90;;;;;;5023384;28;20394;-74
2022/04/29 04:12:46;;;;;;;20.17;11.88;;;3.00;99.90;;;;;;5013832;28;20042;-74
2022/04/29 04:15:13;;;;;;;19.60;11.27;;;3.00;99.90;;;;;;5024502;28;20376;-74
2022/04/29 04:17:40;;;;;;;18.20;11.10;;;3.00;99.90;;;;;;5014761;28;20049;-74
2022/04/29 04:20:07;;;;;;;17.42;11.65;;;3.00;99.90;;;;;;5049664;28;20072;-74
2022/04/29 04:22:36;;;;;;;20.27;10.65;;;3.00;99.90;;;;;;5054581;28;20041;-74
2022/04/29 04:25:04;;;;;;;19.42;10.70;;;2.90;99.90;;;;;;5017198;28;20045;-74
2022/04/29 04:27:30;;;;;;;17.17;11.57;;;2.90;99.90;;;;;;5025215;28;20036;-74
2022/04/29 04:29:57;;;;;;;17.95;11.05;;;3.00;99.90;;;;;;5049734;28;20436;-74
2022/04/29 04:32:23;;;;;;;18.02;11.63;;;3.00;99.90;;;;;;5049599;28;20048;-74
2022/04/29 04:34:51;;;;;;;20.17;10.98;;;3.00;99.90;;;;;;5020478;28;20033;-74
2022/04/29 04:37:21;;;;;;;23.88;11.93;;;3.10;99.90;;;;;;5012602;28;20038;-74
2022/04/29 04:39:48;;;;;;;24.65;12.75;;;3.20;99.90;;;;;;5054853;28;20488;-74
2022/04/29 04:42:14;;;;;;;26.05;13.35;;;3.30;99.90;;;;;;5013989;28;20037;-74
2022/04/29 04:44:40;;;;;;;22.70;13.38;;;3.40;99.90;;;;;;5013629;28;20048;-74
2022/04/29 04:47:06;;;;;;;30.45;13.73;;;3.40;99.90;;;;;;5030433;28;20037;-74
2022/04/29 04:49:33;;;;;;;28.52;13.02;;;3.50;99.90;;;;;;5062690;28;20048;-74
2022/04/29 04:51:59;;;;;;;24.33;13.48;;;3.70;99.90;;;;;;5013509;28;20057;-74
2022/04/29 04:54:25;;;;;;;20.50;12.90;;;3.80;99.90;;;;;;5027157;28;20041;-74
2022/04/29 04:56:50;;;;;;;21.67;13.00;;;4.00;99.90;;;;;;5022789;28;20037;-74
2022/04/29 04:59:16;;;;;;;23.38;13.02;;;4.10;99.90;;;;;;5035065;28;20038;-74
2022/04/29 05:01:42;;;;;;;28.42;13.63;;;4.20;99.90;;;;;;5002250;28;20053;-74
2022/04/29 05:04:09;;;;;;;22.70;12.80;;;4.40;99.90;;;;;;5029158;28;20149;-74
2022/04/29 05:06:36;;;;;;;25.90;13.23;;;4.50;99.90;;;;;;5026782;28;20132;-74
2022/04/29 05:09:04;;;;;;;21.73;11.65;;;4.60;99.90;;;;;;5027741;28;20037;-74
2022/04/29 05:11:30;;;;;;;23.67;12.07;;;4.80;99.90;;;;;;5030446;28;20500;-74
2022/04/29 05:13:56;;;;;;;20.00;11.43;;;4.90;99.90;;;;;;5009985;28;20080;-74
2022/04/29 05:16:24;;;;;;;17.65;12.25;;;5.00;99.90;;;;;;5016103;28;20076;-74
2022/04/29 05:18:50;;;;;;;17.77;11.30;;;5.10;99.90;;;;;;5030815;28;20132;-74
2022/04/29 05:21:16;;;;;;;23.95;12.38;;;5.20;99.90;;;;;;5048502;28;20124;-74
2022/04/29 05:23:42;;;;;;;21.65;12.02;;;5.30;99.90;;;;;;5036694;28;20045;-74
2022/04/29 05:26:10;;;;;;;21.30;11.27;;;5.40;99.90;;;;;;5047219;28;20052;-74
2022/04/29 05:28:36;;;;;;;17.67;10.93;;;5.50;99.90;;;;;;5017771;28;20510;-74
2022/04/29 05:31:03;;;;;;;18.35;11.20;;;5.70;99.90;;;;;;5016623;28;20115;-74
2022/04/29 05:33:30;;;;;;;24.35;12.30;;;5.70;99.90;;;;;;5023858;28;20134;-74
2022/04/29 05:35:58;;;;;;;16.48;10.32;;;5.80;99.90;;;;;;5041759;28;20057;-75
2022/04/29 05:38:23;;;;;;;18.48;11.30;;;5.80;99.90;;;;;;5018192;28;20029;-74
2022/04/29 05:43:33;;;;;;;21.00;10.32;;;5.90;99.90;;;;;;5033326;28;20404;-73
2022/04/29 05:45:59;;;;;;;16.00;10.77;;;6.00;99.90;;;;;;5016475;28;20060;-73
2022/04/29 05:48:25;;;;;;;22.13;10.98;;;6.00;99.90;;;;;;5024771;28;20174;-74
2022/04/29 05:50:50;;;;;;;14.50;10.13;;;6.10;99.90;;;;;;5035636;28;20050;-73
2022/04/29 05:53:16;;;;;;;17.88;10.93;;;6.20;99.90;;;;;;5011680;28;20029;-73
2022/04/29 05:55:43;;;;;;;16.48;10.18;;;6.20;99.90;;;;;;5016267;28;20125;-73
2022/04/29 05:58:12;;;;;;;20.08;10.95;;;6.30;99.90;;;;;;5016822;28;20463;-73
2022/04/29 06:00:43;;;;;;;15.02;10.43;;;6.30;99.90;;;;;;5024227;28;20128;-74
2022/04/29 06:03:09;;;;;;;18.25;11.13;;;6.40;99.90;;;;;;5019319;28;20121;-73
2022/04/29 06:05:35;;;;;;;16.88;10.18;;;6.50;99.90;;;;;;5024472;28;20041;-73
2022/04/29 06:08:00;;;;;;;17.15;11.35;;;6.50;99.90;;;;;;5031481;28;20479;-73
2022/04/29 06:10:26;;;;;;;17.30;10.07;;;6.60;99.90;;;;;;5044297;28;20034;-73
2022/04/29 06:12:52;;;;;;;13.52;9.43;;;6.70;99.90;;;;;;5015993;28;20487;-73
2022/04/29 06:15:17;;;;;;;17.90;9.57;;;6.80;99.90;;;;;;5029818;28;20415;-74
2022/04/29 06:18:13;;;;;;;17.38;11.13;;;6.80;99.90;;;;;;5014203;28;20042;-75
2022/04/29 06:20:50;;;;;;;12.73;9.20;;;6.90;99.90;;;;;;5013855;28;20050;-74
2022/04/29 06:23:16;;;;;;;16.33;9.80;;;6.90;99.90;;;;;;5031918;28;20076;-75
2022/04/29 06:25:42;;;;;;;14.57;9.52;;;7.00;99.90;;;;;;5017636;28;20084;-74
2022/04/29 06:28:14;;;;;;;24.83;10.48;;;7.00;99.90;;;;;;5017980;28;20037;-75
2022/04/29 06:30:46;;;;;;;18.77;9.73;;;7.10;99.90;;;;;;5025076;28;20099;-75
2022/04/29 06:33:25;;;;;;;14.80;8.82;;;7.10;99.90;;;;;;5028859;28;20126;-74
2022/04/29 06:36:06;;;;;;;13.93;10.00;;;7.30;99.90;;;;;;5030407;28;20033;-74
2022/04/29 06:38:37;;;;;;;15.35;9.13;;;7.40;99.90;;;;;;4995995;28;20046;-75
2022/04/29 06:41:09;;;;;;;15.23;9.10;;;7.50;99.90;;;;;;5016239;28;20507;-74
2022/04/29 06:43:55;;;;;;;16.02;8.77;;;7.40;99.90;;;;;;5036071;28;20130;-74
2022/04/29 06:46:24;;;;;;;14.10;9.70;;;7.60;99.90;;;;;;5014273;28;20040;-74
2022/04/29 06:48:50;;;;;;;12.73;9.10;;;7.70;99.90;;;;;;5017869;28;20064;-74
2022/04/29 06:51:29;;;;;;;14.23;8.88;;;7.80;99.90;;;;;;5018868;28;20033;-75
2022/04/29 06:54:05;;;;;;;17.42;9.93;;;7.80;99.90;;;;;;5028977;28;20033;-75
2022/04/29 06:56:34;;;;;;;17.33;9.73;;;7.80;99.90;;;;;;5019728;28;20096;-75
2022/04/29 06:59:02;;;;;;;11.75;8.65;;;7.90;99.90;;;;;;5026758;28;20090;-76
2022/04/29 07:01:51;;;;;;;11.55;8.20;;;8.00;99.90;;;;;;5032565;28;20045;-74
2022/04/29 07:04:32;;;;;;;15.45;9.70;;;7.90;99.90;;;;;;5021856;28;20076;-74
2022/04/29 07:07:11;;;;;;;13.43;8.93;;;8.10;99.90;;;;;;5025179;28;20052;-74
2022/04/29 07:09:59;;;;;;;10.65;8.68;;;8.30;99.90;;;;;;4997918;28;20053;-74
2022/04/29 07:12:55;;;;;;;10.98;7.30;;;8.40;99.90;;;;;;5024307;28;20049;-74
2022/04/29 07:15:55;;;;;;;11.48;7.65;;;8.40;99.90;;;;;;5018262;28;20093;-74
2022/04/29 07:19:23;;;;;;;14.77;6.72;;;8.50;99.90;;;;;;5026732;28;20091;-75
2022/04/29 07:22:09;;;;;;;12.55;6.68;;;8.60;99.90;;;;;;5011815;28;20415;-74
2022/04/29 07:24:55;;;;;;;9.50;6.60;;;8.60;99.90;;;;;;5023529;28;20488;-74
2022/04/29 07:27:29;;;;;;;9.93;6.05;;;8.70;99.90;;;;;;5014885;28;20046;-73
2022/04/29 07:30:12;;;;;;;12.13;6.25;;;8.80;99.90;;;;;;5027916;28;20090;-73
2022/04/29 07:32:38;;;;;;;;;;;8.90;99.90;;;;;;5040019;28;20050;-73
2022/04/29 07:43:36;;;;;;;7.35;5.40;;;9.00;99.90;;;;;;5038257;28;20042;-75
2022/04/29 07:46:05;;;;;;;8.65;4.88;;;8.90;99.90;;;;;;5014402;28;20037;-75
2022/04/29 07:48:37;;;;;;;11.32;4.95;;;9.00;99.90;;;;;;5014344;28;20622;-75
2022/04/29 07:51:14;;;;;;;;;;;;;;;;;;;;;
2022/04/29 07:53:46;;;;;;;7.65;5.15;;;9.30;99.90;;;;;;5029031;28;20085;-75
2022/04/29 07:56:18;;;;;;;6.95;4.68;;;9.40;99.90;;;;;;5005489;28;20030;-75
2022/04/29 07:58:55;;;;;;;9.60;4.55;;;9.40;99.90;;;;;;5014014;28;20041;-76
2022/04/29 08:01:36;;;;;;;9.60;4.90;;;9.50;99.90;;;;;;5014320;28;20038;-75
2022/04/29 08:04:09;;;;;;;9.40;4.68;;;9.70;99.90;;;;;;5013783;28;20041;-75
2022/04/29 08:06:44;;;;;;;8.98;4.80;;;9.90;99.90;;;;;;5031087;28;20136;-75
2022/04/29 08:09:36;;;;;;;8.52;4.90;;;10.00;99.90;;;;;;5021813;28;20567;-75
2022/04/29 08:12:05;;;;;;;7.47;4.87;;;10.10;99.90;;;;;;5013733;28;20040;-75
2022/04/29 08:14:32;;;;;;;6.28;4.10;;;10.30;99.90;;;;;;5029912;28;20048;-75
2022/04/29 08:17:03;;;;;;;6.20;4.30;;;10.30;99.90;;;;;;5010480;28;20034;-75
2022/04/29 08:19:37;;;;;;;6.30;4.63;;;10.40;99.90;;;;;;5005383;28;20079;-75
2022/04/29 08:22:06;;;;;;;5.03;4.40;;;10.70;99.90;;;;;;5013902;28;20049;-75
2022/04/29 08:24:45;;;;;;;8.10;4.53;;;11.20;99.90;;;;;;5013610;28;20132;-75
2022/04/29 08:27:14;;;;;;;5.70;4.03;;;11.70;99.90;;;;;;5013650;28;20038;-75
2022/04/29 08:29:45;;;;;;;5.50;4.07;;;12.00;99.90;;;;;;5006259;28;20074;-76
2022/04/29 08:32:14;;;;;;;8.15;4.70;;;12.40;99.90;;;;;;5013463;28;20033;-75
2022/04/29 08:34:39;;;;;;;5.95;4.38;;;12.80;99.20;;;;;;5004846;28;20041;-75
2022/04/29 08:37:11;;;;;;;7.63;4.35;;;12.80;97.90;;;;;;5013699;28;20385;-75
2022/04/29 08:40:00;;;;;;;8.07;4.68;;;12.50;96.00;;;;;;5013870;28;20530;-75
2022/04/29 08:42:37;;;;;;;8.60;5.15;;;12.30;99.50;;;;;;5016034;28;20091;-76
2022/04/29 08:45:15;;;;;;;8.93;4.15;;;12.40;99.90;;;;;;5027147;28;20046;-76
2022/04/29 08:47:46;;;;;;;6.05;4.90;;;13.00;99.90;;;;;;5016022;28;20424;-75
2022/04/29 08:50:19;;;;;;;7.70;4.75;;;13.40;96.00;;;;;;5017673;28;20055;-75
2022/04/29 08:52:53;;;;;;;7.57;5.00;;;13.30;96.20;;;;;;5017592;28;20053;-75
2022/04/29 09:01:16;;;;;;;;;;;12.90;97.40;;;;;;5027521;28;20049;-75
2022/04/29 09:03:53;;;;;;;6.45;4.60;;;12.80;97.70;;;;;;5050708;28;19967;-76
2022/04/29 09:06:30;;;;;;;7.15;4.93;;;12.90;99.10;;;;;;5008622;28;20077;-76
2022/04/29 09:09:30;;;;;;;9.00;4.70;;;13.30;97.30;;;;;;5013156;28;20456;-76
2022/04/29 09:12:17;;;;;;;7.05;4.43;;;13.50;98.30;;;;;;4998199;28;20049;-76
2022/04/29 09:14:49;;;;;;;8.45;4.68;;;13.80;98.20;;;;;;5003495;28;20042;-76
2022/04/29 09:17:33;;;;;;;5.50;3.95;;;14.20;94.00;;;;;;5033156;28;20033;-76
2022/04/29 09:20:12;;;;;;;4.10;3.53;;;14.40;92.90;;;;;;4997323;28;20046;-76
2022/04/29 09:22:42;;;;;;;5.93;3.55;;;14.50;90.90;;;;;;5013547;28;20054;-76
2022/04/29 09:25:08;;;;;;;4.82;3.50;;;14.70;83.20;;;;;;5005410;28;20444;-76
2022/04/29 09:28:00;;;;;;;6.68;3.55;;;14.60;88.30;;;;;;5015741;28;20519;-76
2022/04/29 09:30:41;;;;;;;7.78;4.18;;;14.50;89.20;;;;;;5016489;28;20050;-76
2022/04/29 09:33:23;;;;;;;4.75;3.13;;;14.60;79.60;;;;;;5016901;28;20492;-76
2022/04/29 09:35:56;;;;;;;5.30;3.47;;;14.20;87.40;;;;;;5016916;28;20056;-76
2022/04/29 09:41:27;;;;;;;4.70;3.28;;;13.80;90.90;;;;;;5025956;28;20434;-76
2022/04/29 09:43:58;;;;;;;7.38;4.20;;;13.70;93.20;;;;;;5021157;28;20073;-76
2022/04/29 09:46:29;;;;;;;8.38;4.20;;;13.50;92.50;;;;;;4996886;28;20042;-76
2022/04/29 09:49:10;;;;;;;4.60;3.88;;;13.30;94.50;;;;;;4997122;28;20045;-76
2022/04/29 09:51:46;;;;;;;4.60;3.42;;;13.20;95.60;;;;;;4996934;28;20088;-76
2022/04/29 09:54:37;;;;;;;6.10;4.25;;;13.10;93.50;;;;;;5001442;28;20034;-75
2022/04/29 09:57:34;;;;;;;6.43;3.78;;;12.90;95.10;;;;;;5023247;28;20108;-76
2022/04/29 10:00:06;;;;;;;4.55;3.58;;;12.80;93.80;;;;;;5011923;28;20054;-76
2022/04/29 10:02:35;;;;;;;5.35;3.72;;;12.70;95.00;;;;;;5016126;28;20045;-76
2022/04/29 10:05:16;;;;;;;5.72;3.58;;;12.70;94.70;;;;;;5032602;28;20049;-76
2022/04/29 10:07:57;;;;;;;8.38;3.92;;;12.50;95.20;;;;;;5016535;28;20153;-76
2022/04/29 10:10:38;;;;;;;7.72;4.43;;;12.40;96.30;;;;;;5015460;28;20034;-76
2022/04/29 10:13:26;;;;;;;6.50;3.90;;;12.40;96.80;;;;;;4996603;28;20176;-76
2022/04/29 10:16:01;;;;;;;7.18;3.83;;;12.50;96.60;;;;;;4996475;28;20053;-75
2022/04/29 10:21:36;;;;;;;6.68;3.90;;;12.50;95.70;;;;;;5031433;28;20470;-76
2022/04/29 10:24:05;;;;;;;7.15;4.10;;;12.40;96.50;;;;;;5010169;28;20042;-75
2022/04/29 10:26:37;;;;;;;7.00;4.40;;;12.50;93.30;;;;;;5015652;28;20056;-75
2022/04/29 10:29:20;;;;;;;6.53;4.07;;;12.50;94.30;;;;;;5016548;28;20045;-76
2022/04/29 10:32:13;;;;;;;8.70;4.30;;;12.40;94.90;;;;;;5012393;28;20133;-76
2022/04/29 10:34:42;;;;;;;6.60;4.32;;;12.50;98.20;;;;;;5014251;28;20079;-76
2022/04/29 10:37:17;;;;;;;6.32;4.50;;;12.60;97.40;;;;;;5016214;28;20546;-76
2022/04/29 10:40:13;;;;;;;8.88;4.30;;;12.70;96.80;;;;;;5014838;28;20045;-76
2022/04/29 10:43:21;;;;;;;4.93;4.00;;;12.80;96.70;;;;;;5015457;28;20056;-76
2022/04/29 10:46:04;;;;;;;7.05;4.28;;;12.80;94.40;;;;;;4938043;28;20437;-75
2022/04/29 10:48:54;;;;;;;4.85;3.85;;;12.70;94.90;;;;;;4924629;28;20050;-76
2022/04/29 10:51:43;;;;;;;6.10;3.85;;;12.70;94.50;;;;;;4997312;28;20132;-76
2022/04/29 10:54:12;;;;;;;7.80;3.97;;;12.60;94.50;;;;;;5014913;28;20052;-75
2022/04/29 10:56:41;;;;;;;5.68;3.85;;;12.60;93.60;;;;;;5014705;28;20049;-75
2022/04/29 10:59:21;;;;;;;5.60;3.67;;;12.60;94.60;;;;;;5021878;28;20116;-76
2022/04/29 11:02:08;;;;;;;6.15;3.50;;;12.70;93.50;;;;;;5007237;28;20049;-75
2022/04/29 11:04:39;;;;;;;9.40;4.28;;;12.80;93.70;;;;;;5014707;28;20096;-75
2022/04/29 11:07:05;;;;;;;6.63;4.60;;;12.90;94.90;;;;;;5025493;28;20046;-76
2022/04/29 11:09:54;;;;;;;5.47;3.97;;;13.00;94.40;;;;;;5011985;28;20220;-75
2022/04/29 11:12:54;;;;;;;7.82;3.70;;;13.00;94.50;;;;;;5031626;28;20048;-76
2022/04/29 11:15:23;;;;;;;6.22;3.60;;;13.10;91.40;;;;;;5011270;28;20037;-75
2022/04/29 11:18:18;;;;;;;6.45;3.75;;;13.10;87.70;;;;;;5013862;28;20045;-76
2022/04/29 11:24:40;;;;;;;5.10;3.57;;;12.80;93.00;;;;;;5012128;28;20034;-76
2022/04/29 11:24:45;;;;;;;5.45;3.97;;;12.80;94.10;;;;;;5029605;28;20307;-76
2022/04/29 11:27:48;;;;;;;;;;;;;;;;;;;;;
2022/04/29 11:30:19;;;;;;;4.73;3.20;;;12.90;93.50;;;;;;5032331;28;20386;-76
2022/04/29 11:32:50;;;;;;;7.32;3.65;;;12.90;92.00;;;;;;5045151;28;20072;-77
2022/04/29 11:35:23;;;;;;;5.30;3.05;;;12.70;92.10;;;;;;5026319;28;20034;-76
2022/04/29 11:37:53;;;;;;;5.22;3.15;;;12.60;92.90;;;;;;5014272;28;20132;-76
2022/04/29 11:40:19;;;;;;;4.97;3.08;;;12.50;91.70;;;;;;5014804;28;20046;-76
2022/04/29 11:42:59;;;;;;;5.75;2.90;;;12.40;93.80;;;;;;5020009;28;20082;-76
2022/04/29 11:45:41;;;;;;;6.57;3.03;;;12.30;93.20;;;;;;5023345;28;20040;-74
2022/04/29 11:48:16;;;;;;;5.10;3.08;;;12.30;94.60;;;;;;5015189;28;20033;-77
2022/04/29 11:51:04;;;;;;;6.78;3.40;;;12.40;94.40;;;;;;5020497;28;20128;-75
2022/04/29 11:53:59;;;;;;;7.32;3.25;;;12.40;94.50;;;;;;5013904;28;20147;-76
2022/04/29 11:57:00;;;;;;;8.05;3.10;;;12.50;93.20;;;;;;5027404;28;20053;-75
2022/04/29 11:59:38;;;;;;;4.95;3.10;;;12.50;92.40;;;;;;5013264;28;20045;-76
2022/04/29 12:02:20;;;;;;;4.95;3.08;;;12.50;92.30;;;;;;5049938;22;20037;-75
2022/04/29 12:05:07;;;;;;;4.90;2.83;;;12.30;92.90;;;;;;5031567;28;20115;-75
2022/04/29 12:07:49;;;;;;;4.53;3.45;;;12.20;94.60;;;;;;5049915;28;20053;-76
2022/04/29 12:10:28;;;;;;;5.35;3.40;;;12.40;92.50;;;;;;5033536;28;20033;-75
2022/04/29 12:13:01;;;;;;;6.00;3.67;;;12.40;92.90;;;;;;5047521;28;20098;-75
2022/04/29 12:15:48;;;;;;;7.05;3.50;;;12.40;93.50;;;;;;5015057;28;20406;-74
2022/04/29 12:18:43;;;;;;;7.75;4.10;;;12.50;93.00;;;;;;5027265;28;20053;-73
2022/04/29 12:23:48;;;;;;;8.05;3.58;;;12.80;90.60;;;;;;5046347;22;20038;-74
2022/04/29 12:26:26;;;;;;;5.68;3.80;;;13.00;90.30;;;;;;5014773;28;20051;-74
2022/04/29 12:28:56;;;;;;;5.05;3.83;;;13.00;88.80;;;;;;5020706;28;20049;-74
2022/04/29 12:35:08;;;;;;;6.38;3.60;;;13.10;86.90;;;;;;5019590;28;20049;-74
2022/04/29 12:37:51;;;;;;;4.80;3.83;;;13.00;91.10;;;;;;5012837;28;20057;-73
2022/04/29 12:40:28;;;;;;;;;;;13.30;90.60;;;;;;5013995;28;20045;-74
2022/04/29 12:43:11;;;;;;;5.22;4.05;;;13.60;93.20;;;;;;4991540;28;20004;-76
2022/04/29 12:45:40;;;;;;;6.93;4.13;;;13.90;90.50;;;;;;4989778;28;20561;-75
2022/04/29 12:48:08;;;;;;;5.10;3.90;;;13.90;90.40;;;;;;4991424;28;20046;-75
2022/04/29 12:50:44;;;;;;;5.43;4.00;;;13.90;90.90;;;;;;4992451;28;20424;-75
2022/04/29 12:53:16;;;;;;;7.30;4.13;;;13.90;86.80;;;;;;4994002;28;20041;-75
2022/04/29 12:55:56;;;;;;;7.30;4.20;;;13.70;88.70;;;;;;4994838;28;20042;-75
2022/04/29 12:58:26;;;;;;;9.43;5.72;;;13.50;89.40;;;;;;5004368;28;20057;-75
2022/04/29 13:00:52;;;;;;;6.05;4.82;;;13.30;91.20;;;;;;5009844;28;20046;-77
2022/04/29 13:03:21;;;;;;;6.22;4.93;;;13.10;92.50;;;;;;4994005;28;20065;-75
2022/04/29 13:05:50;;;;;;;6.57;5.07;;;13.00;92.30;;;;;;4994024;28;20041;-76
2022/04/29 13:08:19;;;;;;;10.68;5.60;;;12.90;91.40;;;;;;4989466;28;20038;-75
2022/04/29 13:10:52;;;;;;;7.63;5.18;;;12.70;91.70;;;;;;4993668;28;20118;-74
2022/04/29 13:13:22;;;;;;;6.63;5.30;;;12.50;93.00;;;;;;4993807;28;20493;-74
2022/04/29 13:15:56;;;;;;;5.72;5.13;;;12.50;94.20;;;;;;4993539;28;20533;-74
2022/04/29 13:18:29;;;;;;;7.15;5.95;;;12.40;94.00;;;;;;4989777;28;20034;-75
2022/04/29 13:20:54;;;;;;;6.93;5.88;;;12.60;94.80;;;;;;5002985;28;20044;-74
2022/04/29 13:23:20;;;;;;;5.80;5.28;;;12.90;93.60;;;;;;4990615;28;20050;-75
2022/04/29 13:25:50;;;;;;;9.40;5.95;;;13.00;92.00;;;;;;4984380;28;20519;-74
2022/04/29 13:28:20;;;;;;;7.47;5.70;;;13.10;91.00;;;;;;5014604;28;20093;-75
2022/04/29 13:30:46;;;;;;;6.30;4.88;;;13.30;91.10;;;;;;5013667;28;20037;-74
2022/04/29 13:33:18;;;;;;;7.65;5.53;;;13.40;90.10;;;;;;4996880;28;20056;-75
2022/04/29 13:35:58;;;;;;;7.03;5.63;;;13.50;90.20;;;;;;4993529;28;20057;-75
2022/04/29 13:38:24;;;;;;;5.72;5.13;;;13.60;90.00;;;;;;4991715;28;20614;-75
2022/04/29 13:40:58;;;;;;;6.90;5.65;;;13.60;87.30;;;;;;5013185;28;20301;-75
2022/04/29 13:43:26;;;;;;;6.65;5.85;;;13.60;83.10;;;;;;4997282;28;20042;-75